Time;durP1;ratioP1;P1;durP2;ratioP2;P2;SDS_P1;SDS_P2;PMS_P1;PMS_P2;Temp;Humidity;BMP_temperature;BMP_pressure;BME280_temperature;BME280_humidity;BME280_pressure;Samples;Min_cycle;Max_cycle;Signal;HPM_P1;HPM_P2
2023/06/17 00:00:39;;;;;;;10.80;7.78;;;;;18.50;98591.00;;;;5072194;28;20043;-60
2023/06/17 00:03:07;;;;;;;9.45;7.32;;;;;18.60;98593.00;;;;5072076;28;20094;-60
2023/06/17 00:05:34;;;;;;;8.73;7.57;;;;;18.50;98593.00;;;;5073164;28;20056;-59
2023/06/17 00:08:00;;;;;;;11.90;7.28;;;;;18.50;98592.00;;;;5073412;28;20389;-59
2023/06/17 00:10:27;;;;;;;8.88;6.65;;;;;18.40;98589.00;;;;5073205;28;20559;-60
2023/06/17 00:12:54;;;;;;;7.38;6.35;;;;;18.40;98586.00;;;;5072170;28;20049;-62
2023/06/17 00:15:22;;;;;;;7.57;6.82;;;;;18.30;98581.00;;;;5073007;28;20119;-60
2023/06/17 00:17:50;;;;;;;9.35;6.80;;;;;18.30;98583.00;;;;5072787;28;20055;-60
2023/06/17 00:20:17;;;;;;;7.47;6.25;;;;;18.30;98581.00;;;;5072681;28;20508;-60
2023/06/17 00:22:44;;;;;;;7.32;5.93;;;;;18.40;98581.00;;;;5072602;28;20493;-60
2023/06/17 00:25:14;;;;;;;7.95;6.45;;;;;18.40;98587.00;;;;5073177;28;20114;-61
2023/06/17 00:27:41;;;;;;;9.18;6.07;;;;;18.30;98578.00;;;;5072831;28;20046;-61
2023/06/17 00:30:08;;;;;;;9.82;6.55;;;;;18.30;98584.00;;;;5054785;28;20144;-61
2023/06/17 00:32:35;;;;;;;9.77;7.25;;;;;18.20;98579.00;;;;5073253;28;20086;-61
2023/06/17 00:35:05;;;;;;;9.55;7.50;;;;;18.10;98579.00;;;;5071514;28;20497;-60
2023/06/17 00:37:32;;;;;;;9.45;7.57;;;;;18.10;98578.00;;;;5072317;28;20049;-61
2023/06/17 00:39:59;;;;;;;7.32;6.47;;;;;18.10;98579.00;;;;5072378;28;20433;-61
2023/06/17 00:42:26;;;;;;;7.90;6.40;;;;;18.00;98575.00;;;;5071568;28;20480;-61
2023/06/17 00:44:53;;;;;;;8.13;6.40;;;;;17.90;98574.00;;;;5072574;28;20047;-62
2023/06/17 00:47:20;;;;;;;11.18;6.93;;;;;17.80;98572.00;;;;5071100;28;20131;-61
2023/06/17 00:49:47;;;;;;;8.20;6.82;;;;;17.70;98570.00;;;;5072142;28;20089;-61
2023/06/17 00:52:14;;;;;;;9.85;5.90;;;;;17.70;98569.00;;;;5070882;28;20052;-61
2023/06/17 00:55:01;;;;;;;9.32;6.10;;;;;17.60;98572.00;;;;5071986;28;20496;-60
2023/06/17 00:57:29;;;;;;;8.80;6.90;;;;;17.50;98572.00;;;;5054562;28;20468;-62
2023/06/17 00:59:56;;;;;;;8.98;6.85;;;;;17.50;98569.00;;;;5054646;28;20043;-61
2023/06/17 01:02:25;;;;;;;9.10;6.78;;;;;17.50;98569.00;;;;5071491;28;20048;-61
2023/06/17 01:04:53;;;;;;;9.13;6.22;;;;;17.50;98571.00;;;;5072665;28;20055;-61
2023/06/17 01:07:35;;;;;;;7.15;6.13;;;;;17.60;98567.00;;;;5072265;28;20048;-60
2023/06/17 01:10:08;;;;;;;8.20;6.35;;;;;17.50;98567.00;;;;5070923;28;20044;-61
2023/06/17 01:12:36;;;;;;;6.53;5.93;;;;;17.40;98572.00;;;;5071553;28;20055;-61
2023/06/17 01:15:04;;;;;;;9.20;6.70;;;;;17.40;98569.00;;;;5072572;28;20444;-61
2023/06/17 01:17:31;;;;;;;9.07;6.95;;;;;17.30;98576.00;;;;5070741;28;20052;-61
2023/06/17 01:19:58;;;;;;;8.38;6.35;;;;;17.30;98576.00;;;;5070571;28;20048;-60
2023/06/17 01:22:26;;;;;;;7.35;6.63;;;;;17.20;98567.00;;;;5072135;28;20064;-60
2023/06/17 01:24:56;;;;;;;9.60;7.07;;;;;17.20;98571.00;;;;5071052;28;20049;-60
2023/06/17 01:27:23;;;;;;;6.68;6.00;;;;;17.20;98572.00;;;;5054699;28;20080;-62
2023/06/17 01:29:49;;;;;;;7.65;6.00;;;;;17.20;98567.00;;;;5072039;28;20094;-60
2023/06/17 01:32:16;;;;;;;9.48;7.18;;;;;17.10;98568.00;;;;5070811;28;20516;-60
2023/06/17 01:34:57;;;;;;;8.45;6.63;;;;;17.00;98573.00;;;;5071524;28;20049;-60
2023/06/17 01:37:45;;;;;;;8.48;6.43;;;;;16.90;98565.00;;;;5069903;28;20055;-60
2023/06/17 01:40:14;;;;;;;7.80;7.00;;;;;16.90;98571.00;;;;5071357;28;20498;-60
2023/06/17 01:42:46;;;;;;;7.72;6.93;;;;;16.80;98568.00;;;;5072121;28;20086;-60
2023/06/17 01:45:14;;;;;;;7.60;6.80;;;;;16.80;98566.00;;;;5070954;28;20045;-60
2023/06/17 01:47:42;;;;;;;8.20;7.00;;;;;16.70;98566.00;;;;5071757;28;20052;-60
2023/06/17 01:50:09;;;;;;;7.68;6.90;;;;;16.70;98563.00;;;;5072007;28;20062;-60
2023/06/17 01:52:36;;;;;;;8.63;7.10;;;;;16.60;98571.00;;;;5076013;28;20123;-59
2023/06/17 01:55:03;;;;;;;8.20;7.20;;;;;16.60;98567.00;;;;5072529;28;20064;-59
2023/06/17 01:57:30;;;;;;;9.18;7.38;;;;;16.50;98566.00;;;;5070528;28;20544;-61
2023/06/17 01:59:57;;;;;;;7.20;6.50;;;;;16.40;98570.00;;;;5071104;28;20052;-61
2023/06/17 02:02:24;;;;;;;9.05;7.63;;;;;16.30;98561.00;;;;5075437;28;20501;-61
2023/06/17 02:04:52;;;;;;;9.82;7.20;;;;;16.30;98567.00;;;;5075603;28;20086;-61
2023/06/17 02:07:25;;;;;;;10.23;7.05;;;;;16.30;98565.00;;;;5074180;28;20048;-60
2023/06/17 02:09:52;;;;;;;9.73;6.70;;;;;16.30;98565.00;;;;5057611;28;20040;-61
2023/06/17 02:12:18;;;;;;;7.22;6.53;;;;;16.40;98562.00;;;;5075530;28;20408;-61
2023/06/17 02:14:45;;;;;;;7.28;6.28;;;;;16.50;98559.00;;;;5057661;28;20072;-61
2023/06/17 02:17:12;;;;;;;7.72;6.25;;;;;16.50;98563.00;;;;5073921;28;20048;-60
2023/06/17 02:19:39;;;;;;;8.32;6.47;;;;;16.50;98559.00;;;;5074242;28;20452;-59
2023/06/17 02:22:06;;;;;;;7.97;6.55;;;;;16.40;98554.00;;;;5075058;28;20497;-59
2023/06/17 02:24:33;;;;;;;11.15;6.47;;;;;16.40;98553.00;;;;5075054;28;20040;-58
2023/06/17 02:27:00;;;;;;;7.32;6.63;;;;;16.30;98554.00;;;;5075440;28;20056;-60
2023/06/17 02:29:27;;;;;;;7.28;6.57;;;;;16.10;98550.00;;;;5074676;28;20056;-60
2023/06/17 02:31:54;;;;;;;7.25;6.35;;;;;16.10;98550.00;;;;5075151;28;20051;-60
2023/06/17 02:34:20;;;;;;;10.82;6.22;;;;;16.00;98547.00;;;;5073673;28;20045;-60
2023/06/17 02:36:47;;;;;;;7.78;6.65;;;;;16.00;98543.00;;;;5074826;28;20063;-60
2023/06/17 02:39:15;;;;;;;7.85;6.57;;;;;16.00;98544.00;;;;5074100;28;20464;-60
2023/06/17 02:41:41;;;;;;;9.30;6.80;;;;;16.10;98543.00;;;;5075256;28;20102;-60
2023/06/17 02:44:08;;;;;;;9.10;7.30;;;;;16.00;98537.00;;;;5073875;28;20056;-61
2023/06/17 02:46:35;;;;;;;9.15;7.05;;;;;16.00;98539.00;;;;5074166;28;20080;-61
2023/06/17 02:49:03;;;;;;;9.20;6.93;;;;;16.10;98529.00;;;;5073506;28;20501;-61
2023/06/17 02:51:30;;;;;;;9.57;7.30;;;;;16.10;98537.00;;;;5073926;28;20231;-60
2023/06/17 02:53:57;;;;;;;7.70;6.65;;;;;16.00;98537.00;;;;5072809;28;20504;-61
2023/06/17 02:56:26;;;;;;;8.23;6.82;;;;;15.90;98524.00;;;;5072997;28;20040;-60
2023/06/17 02:58:52;;;;;;;12.27;7.47;;;;;15.80;98534.00;;;;5073177;28;20036;-61
2023/06/17 03:01:21;;;;;;;11.25;7.13;;;;;15.80;98538.00;;;;5073203;28;20049;-61
2023/06/17 03:03:48;;;;;;;7.63;6.80;;;;;15.70;98525.00;;;;5074632;28;20067;-62
2023/06/17 03:06:15;;;;;;;8.85;6.95;;;;;15.80;98521.00;;;;5073322;28;20098;-62
2023/06/17 03:08:46;;;;;;;8.07;6.82;;;;;15.80;98534.00;;;;5072952;28;20044;-61
2023/06/17 03:11:13;;;;;;;8.32;6.75;;;;;15.80;98534.00;;;;5073066;28;20044;-61
2023/06/17 03:13:42;;;;;;;7.60;6.72;;;;;15.90;98540.00;;;;5073051;28;20052;-61
2023/06/17 03:16:18;;;;;;;12.68;6.97;;;;;15.90;98537.00;;;;5073280;28;20056;-61
2023/06/17 03:18:44;;;;;;;9.02;7.10;;;;;15.90;98534.00;;;;5072750;28;20549;-62
2023/06/17 03:21:11;;;;;;;8.02;7.22;;;;;15.90;98540.00;;;;5072742;28;20106;-62
2023/06/17 03:23:40;;;;;;;9.48;7.30;;;;;15.80;98539.00;;;;5056218;28;20143;-61
2023/06/17 03:26:07;;;;;;;7.68;6.90;;;;;15.80;98542.00;;;;5072912;28;20048;-61
2023/06/17 03:28:34;;;;;;;8.30;7.20;;;;;15.80;98543.00;;;;5072737;28;20407;-61
2023/06/17 03:31:02;;;;;;;8.68;7.07;;;;;15.90;98541.00;;;;5072142;28;20048;-61
2023/06/17 03:33:29;;;;;;;10.43;7.60;;;;;15.80;98548.00;;;;5072444;28;20041;-62
2023/06/17 03:35:57;;;;;;;7.88;7.07;;;;;15.80;98536.00;;;;5056035;28;20064;-61
2023/06/17 03:38:24;;;;;;;9.90;6.93;;;;;15.80;98536.00;;;;5072291;28;20547;-61
2023/06/17 03:40:51;;;;;;;9.73;7.32;;;;;15.70;98529.00;;;;5072737;28;20036;-62
2023/06/17 03:43:17;;;;;;;9.68;6.82;;;;;15.70;98523.00;;;;5072533;28;20045;-59
2023/06/17 03:45:45;;;;;;;9.10;7.25;;;;;15.60;98522.00;;;;5055666;28;20056;-60
2023/06/17 03:48:12;;;;;;;9.20;8.23;;;;;15.50;98524.00;;;;5071983;28;20045;-61
2023/06/17 03:50:39;;;;;;;8.90;7.00;;;;;15.40;98526.00;;;;5071907;28;20036;-59
2023/06/17 03:53:08;;;;;;;9.90;8.32;;;;;15.40;98529.00;;;;5071973;28;20083;-62
2023/06/17 03:55:36;;;;;;;8.75;7.35;;;;;15.50;98527.00;;;;5055904;28;20049;-62
2023/06/17 03:58:03;;;;;;;9.02;7.30;;;;;15.50;98530.00;;;;5072146;28;20110;-62
2023/06/17 04:00:32;;;;;;;7.93;6.78;;;;;15.50;98522.00;;;;5071933;28;20055;-62
2023/06/17 04:02:58;;;;;;;7.80;6.97;;;;;15.50;98530.00;;;;5072431;28;20046;-62
2023/06/17 04:05:31;;;;;;;9.23;7.57;;;;;15.50;98526.00;;;;5072279;28;20050;-62
2023/06/17 04:08:02;;;;;;;7.90;7.10;;;;;15.50;98523.00;;;;5072330;28;20071;-61
2023/06/17 04:10:29;;;;;;;8.43;6.47;;;;;15.50;98517.00;;;;5072247;28;20425;-61
2023/06/17 04:12:56;;;;;;;10.13;6.93;;;;;15.50;98523.00;;;;5071751;28;20102;-61
2023/06/17 04:15:25;;;;;;;10.10;7.57;;;;;15.50;98522.00;;;;5071960;28;20083;-62
2023/06/17 04:17:51;;;;;;;15.55;11.27;;;;;15.60;98521.00;;;;5055075;28;20048;-62
2023/06/17 04:20:25;;;;;;;11.50;8.23;;;;;15.70;98524.00;;;;5055601;28;20140;-61
2023/06/17 04:22:52;;;;;;;7.88;6.85;;;;;15.70;98522.00;;;;5071760;28;20417;-62
2023/06/17 04:25:20;;;;;;;8.70;6.22;;;;;15.70;98519.00;;;;5071598;28;20044;-62
2023/06/17 04:27:53;;;;;;;9.82;7.15;;;;;15.70;98522.00;;;;5071556;28;20048;-62
2023/06/17 04:30:21;;;;;;;7.45;6.22;;;;;15.80;98527.00;;;;5054754;28;20171;-62
2023/06/17 04:32:50;;;;;;;9.05;7.18;;;;;16.00;98528.00;;;;5071791;28;20458;-62
2023/06/17 04:35:18;;;;;;;6.97;6.20;;;;;16.20;98529.00;;;;5071121;28;20658;-62
2023/06/17 04:37:53;;;;;;;8.50;6.80;;;;;16.30;98528.00;;;;5071123;28;20512;-62
2023/06/17 04:40:23;;;;;;;7.22;6.53;;;;;16.50;98528.00;;;;5054762;28;20555;-62
2023/06/17 04:42:51;;;;;;;8.80;7.30;;;;;16.70;98528.00;;;;5054633;28;20048;-62
2023/06/17 04:45:19;;;;;;;9.07;7.13;;;;;16.70;98528.00;;;;5070974;28;20400;-62
2023/06/17 04:47:51;;;;;;;10.23;6.85;;;;;16.90;98534.00;;;;5071177;28;20048;-61
2023/06/17 04:50:19;;;;;;;8.18;7.18;;;;;17.00;98530.00;;;;5070908;28;20131;-62
2023/06/17 04:52:53;;;;;;;8.43;7.13;;;;;17.00;98537.00;;;;5054565;28;20068;-59
2023/06/17 04:55:24;;;;;;;11.70;8.52;;;;;17.10;98531.00;;;;5055349;28;20132;-60
2023/06/17 04:57:51;;;;;;;7.53;6.72;;;;;17.00;98528.00;;;;5054732;28;20102;-61
2023/06/17 05:00:31;;;;;;;9.68;7.80;;;;;17.00;98535.00;;;;5070693;28;20079;-62
2023/06/17 05:02:58;;;;;;;8.38;7.43;;;;;17.00;98536.00;;;;5071284;28;20401;-62
2023/06/17 05:05:25;;;;;;;10.75;7.90;;;;;17.10;98536.00;;;;5070802;28;20078;-62
2023/06/17 05:07:52;;;;;;;9.65;8.65;;;;;17.30;98528.00;;;;5054511;28;20088;-63
2023/06/17 05:10:19;;;;;;;29.90;21.02;;;;;17.30;98530.00;;;;5070544;28;20413;-63
2023/06/17 05:12:47;;;;;;;9.35;8.02;;;;;17.40;98541.00;;;;5071139;28;20044;-62
2023/06/17 05:15:14;;;;;;;11.18;8.65;;;;;17.50;98531.00;;;;5071158;28;20101;-61
2023/06/17 05:17:40;;;;;;;9.32;8.35;;;;;17.70;98537.00;;;;5054397;28;20053;-62
2023/06/17 05:20:10;;;;;;;10.80;8.27;;;;;17.60;98542.00;;;;5075999;28;20049;-63
2023/06/17 05:22:38;;;;;;;9.68;7.43;;;;;17.80;98537.00;;;;5079020;28;20044;-63
2023/06/17 05:25:06;;;;;;;8.60;6.85;;;;;17.90;98541.00;;;;5076070;28;20063;-63
2023/06/17 05:27:33;;;;;;;8.07;7.03;;;;;17.90;98531.00;;;;5075430;28;20053;-63
2023/06/17 05:30:00;;;;;;;7.43;6.63;;;;;17.90;98542.00;;;;5074957;28;20048;-63
2023/06/17 05:32:26;;;;;;;10.30;7.18;;;;;17.90;98544.00;;;;5074825;28;20386;-63
2023/06/17 05:34:53;;;;;;;8.35;7.45;;;;;18.00;98544.00;;;;5077552;28;20067;-63
2023/06/17 05:37:20;;;;;;;7.68;6.88;;;;;18.10;98557.00;;;;5083578;28;20045;-64
2023/06/17 05:39:46;;;;;;;8.27;7.40;;;;;18.10;98548.00;;;;5066961;28;20144;-63
2023/06/17 05:42:13;;;;;;;8.27;7.40;;;;;18.00;98549.00;;;;5083974;28;20048;-62
2023/06/17 05:44:42;;;;;;;9.35;7.47;;;;;18.00;98551.00;;;;5082936;28;20072;-62
2023/06/17 05:47:09;;;;;;;9.15;6.95;;;;;18.10;98547.00;;;;5083168;28;20044;-61
2023/06/17 05:49:35;;;;;;;7.80;7.10;;;;;18.30;98548.00;;;;5082793;28;20109;-64
2023/06/17 05:52:02;;;;;;;8.93;7.45;;;;;18.50;98552.00;;;;5082565;28;20553;-62
2023/06/17 05:54:30;;;;;;;8.30;7.13;;;;;18.60;98554.00;;;;5083035;28;20108;-63
2023/06/17 05:56:57;;;;;;;9.63;7.13;;;;;18.90;98555.00;;;;5083392;28;20048;-62
2023/06/17 05:59:26;;;;;;;10.38;8.68;;;;;19.00;98561.00;;;;5086132;28;20049;-61
2023/06/17 06:01:53;;;;;;;9.18;7.45;;;;;19.00;98550.00;;;;5085519;28;20057;-62
2023/06/17 06:04:20;;;;;;;8.00;7.15;;;;;19.00;98554.00;;;;5083780;28;20055;-65
2023/06/17 06:06:46;;;;;;;8.25;7.32;;;;;19.20;98554.00;;;;5084313;28;20048;-62
2023/06/17 06:09:13;;;;;;;11.85;8.07;;;;;19.30;98556.00;;;;5082511;28;20409;-63
2023/06/17 06:11:40;;;;;;;10.48;6.90;;;;;19.50;98559.00;;;;5082837;28;20071;-62
2023/06/17 06:14:07;;;;;;;11.68;6.85;;;;;19.40;98561.00;;;;5067123;28;20087;-63
2023/06/17 06:16:35;;;;;;;10.23;7.75;;;;;19.50;98554.00;;;;5082283;28;20051;-62
2023/06/17 06:19:01;;;;;;;9.88;7.90;;;;;19.60;98565.00;;;;5084294;28;20048;-62
2023/06/17 06:21:28;;;;;;;12.40;9.98;;;;;19.70;98565.00;;;;5083041;28;20056;-62
2023/06/17 06:23:55;;;;;;;9.60;7.43;;;;;19.80;98571.00;;;;5081611;28;20071;-62
2023/06/17 06:26:26;;;;;;;8.63;7.03;;;;;19.90;98570.00;;;;5066435;28;20135;-63
2023/06/17 06:28:53;;;;;;;7.45;6.68;;;;;20.10;98568.00;;;;5081992;28;20045;-62
2023/06/17 06:31:20;;;;;;;9.00;7.10;;;;;20.20;98571.00;;;;5081616;28;20048;-62
2023/06/17 06:33:48;;;;;;;7.43;6.60;;;;;20.30;98569.00;;;;5083416;28;20128;-62
2023/06/17 06:36:14;;;;;;;8.85;6.45;;;;;20.40;98575.00;;;;5084817;28;20048;-63
2023/06/17 06:38:42;;;;;;;8.20;6.18;;;;;20.40;98573.00;;;;5086269;28;20064;-62
2023/06/17 06:41:09;;;;;;;9.52;6.22;;;;;20.50;98577.00;;;;5086442;28;20072;-62
2023/06/17 06:43:42;;;;;;;9.73;6.15;;;;;20.60;98570.00;;;;5085410;28;20075;-62
2023/06/17 06:46:14;;;;;;;6.20;5.60;;;;;20.60;98571.00;;;;5086901;28;20044;-61
2023/06/17 06:48:42;;;;;;;6.57;5.47;;;;;20.70;98573.00;;;;5071301;28;20044;-62
2023/06/17 06:51:09;;;;;;;8.38;7.30;;;;;20.80;98581.00;;;;5087555;28;20052;-62
2023/06/17 06:53:36;;;;;;;10.43;7.13;;;;;20.90;98584.00;;;;5084813;28;20048;-62
2023/06/17 06:56:05;;;;;;;6.80;6.10;;;;;21.00;98583.00;;;;5081391;28;20066;-61
2023/06/17 06:58:36;;;;;;;8.55;5.95;;;;;21.00;98579.00;;;;5081319;28;20049;-62
2023/06/17 07:01:02;;;;;;;10.68;6.68;;;;;21.10;98584.00;;;;5077758;28;20048;-60
2023/06/17 07:03:29;;;;;;;8.40;6.57;;;;;21.20;98588.00;;;;5074853;28;20573;-60
2023/06/17 07:05:55;;;;;;;7.43;5.82;;;;;21.30;98580.00;;;;5074029;28;20052;-61
2023/06/17 07:08:24;;;;;;;7.88;6.40;;;;;21.50;98587.00;;;;5074161;28;20509;-60
2023/06/17 07:10:51;;;;;;;7.10;6.40;;;;;21.60;98590.00;;;;5073386;28;20132;-60
2023/06/17 07:13:18;;;;;;;7.90;5.82;;;;;21.70;98584.00;;;;5075425;28;20119;-63
2023/06/17 07:15:47;;;;;;;9.95;6.70;;;;;21.80;98587.00;;;;5073499;28;20049;-62
2023/06/17 07:18:14;;;;;;;7.53;5.97;;;;;21.90;98587.00;;;;5073284;28;20054;-62
2023/06/17 07:20:41;;;;;;;7.93;6.18;;;;;22.00;98593.00;;;;5056922;28;20075;-62
2023/06/17 07:23:09;;;;;;;8.20;5.45;;;;;22.10;98593.00;;;;5072947;28;20052;-62
2023/06/17 07:25:36;;;;;;;8.02;6.10;;;;;22.20;98593.00;;;;5072810;28;20060;-63
2023/06/17 07:28:03;;;;;;;7.03;5.65;;;;;22.30;98589.00;;;;5072718;28;20045;-61
2023/06/17 07:30:30;;;;;;;7.18;5.97;;;;;22.40;98596.00;;;;5072329;28;20044;-62
2023/06/17 07:32:57;;;;;;;7.60;5.75;;;;;22.50;98587.00;;;;5055979;28;20055;-62
2023/06/17 07:35:25;;;;;;;6.35;5.70;;;;;22.60;98589.00;;;;5072484;28;20056;-62
2023/06/17 07:37:52;;;;;;;7.68;5.38;;;;;22.70;98587.00;;;;5071567;28;20390;-62
2023/06/17 07:40:19;;;;;;;6.63;5.93;;;;;22.90;98588.00;;;;5073005;28;20413;-63
2023/06/17 07:42:46;;;;;;;6.30;5.70;;;;;23.00;98585.00;;;;5073869;28;20071;-63
2023/06/17 07:45:13;;;;;;;6.85;6.20;;;;;23.10;98585.00;;;;5072621;28;20051;-62
2023/06/17 07:47:39;;;;;;;7.90;5.97;;;;;23.10;98590.00;;;;5073863;28;20651;-61
2023/06/17 07:50:10;;;;;;;7.30;5.70;;;;;23.10;98590.00;;;;5073704;28;20402;-62
2023/06/17 07:52:37;;;;;;;7.25;5.95;;;;;23.20;98589.00;;;;5072505;28;20055;-62
2023/06/17 07:55:05;;;;;;;9.90;8.63;;;;;23.30;98586.00;;;;5073551;28;20572;-63
2023/06/17 07:57:34;;;;;;;6.35;5.75;;;;;23.40;98586.00;;;;5073019;28;20044;-62
2023/06/17 08:00:01;;;;;;;6.07;5.47;;;;;23.60;98586.00;;;;5073214;28;20123;-62
2023/06/17 08:02:38;;;;;;;7.35;5.57;;;;;23.70;98584.00;;;;5073509;28;20045;-61
2023/06/17 08:05:05;;;;;;;6.80;5.35;;;;;23.90;98585.00;;;;5073452;28;20048;-62
2023/06/17 08:07:32;;;;;;;7.82;5.55;;;;;24.00;98581.00;;;;5073297;28;20059;-62
2023/06/17 08:09:58;;;;;;;5.57;5.05;;;;;24.10;98586.00;;;;5073449;28;20481;-61
2023/06/17 08:12:25;;;;;;;5.70;5.18;;;;;24.20;98585.00;;;;5071944;28;20076;-62
2023/06/17 08:14:52;;;;;;;6.43;5.32;;;;;24.30;98578.00;;;;5073287;28;20467;-62
2023/06/17 08:17:19;;;;;;;25.27;19.60;;;;;24.30;98576.00;;;;5073287;28;20044;-61
2023/06/17 08:19:46;;;;;;;7.35;6.53;;;;;24.40;98573.00;;;;5073726;28;20048;-63
2023/06/17 08:22:12;;;;;;;8.48;4.60;;;;;24.50;98567.00;;;;5073552;28;20033;-63
2023/06/17 08:24:39;;;;;;;7.35;4.90;;;;;24.60;98569.00;;;;5072826;28;20119;-60
2023/06/17 08:27:09;;;;;;;5.35;4.80;;;;;24.80;98575.00;;;;5055216;28;20523;-60
2023/06/17 08:29:36;;;;;;;4.90;4.32;;;;;25.00;98559.00;;;;5072770;28;20237;-60
2023/06/17 08:32:03;;;;;;;5.35;4.63;;;;;25.00;98562.00;;;;5072755;28;20090;-60
2023/06/17 08:34:31;;;;;;;5.10;4.55;;;;;25.10;98563.00;;;;5072826;28;20083;-60
2023/06/17 08:37:03;;;;;;;5.38;4.55;;;;;25.20;98560.00;;;;5072897;28;20047;-60
2023/06/17 08:39:31;;;;;;;4.82;4.43;;;;;25.30;98559.00;;;;5072068;28;20401;-60
2023/06/17 08:41:58;;;;;;;6.15;4.93;;;;;25.30;98557.00;;;;5073644;28;20482;-61
2023/06/17 08:44:26;;;;;;;8.57;5.35;;;;;25.40;98553.00;;;;5071526;28;20501;-61
2023/06/17 08:46:53;;;;;;;7.95;5.55;;;;;25.60;98558.00;;;;5072283;28;20040;-61
2023/06/17 08:49:21;;;;;;;5.88;4.53;;;;;25.70;98551.00;;;;5072387;28;20485;-60
2023/06/17 08:51:51;;;;;;;6.20;4.65;;;;;25.80;98565.00;;;;5072106;28;20040;-60
2023/06/17 08:54:20;;;;;;;4.53;4.13;;;;;26.10;98560.00;;;;5072229;28;20044;-61
2023/06/17 08:56:47;;;;;;;5.05;4.65;;;;;26.20;98556.00;;;;5072208;28;20128;-61
2023/06/17 08:59:14;;;;;;;8.45;4.85;;;;;26.20;98556.00;;;;5072349;28;20040;-60
2023/06/17 09:01:43;;;;;;;4.68;4.10;;;;;26.30;98554.00;;;;5072448;28;20047;-60
2023/06/17 09:04:11;;;;;;;6.47;4.30;;;;;26.30;98550.00;;;;5072731;28;20119;-61
2023/06/17 09:06:37;;;;;;;4.43;4.00;;;;;26.30;98548.00;;;;5072481;28;20040;-61
2023/06/17 09:09:05;;;;;;;5.80;4.82;;;;;26.50;98552.00;;;;5071023;28;20049;-60
2023/06/17 09:11:32;;;;;;;5.88;4.90;;;;;26.40;98551.00;;;;5071183;28;20055;-61
2023/06/17 09:14:00;;;;;;;6.38;4.22;;;;;26.40;98545.00;;;;5072451;28;20108;-60
2023/06/17 09:16:30;;;;;;;4.88;4.28;;;;;26.40;98546.00;;;;5071110;28;20440;-60
2023/06/17 09:19:01;;;;;;;5.40;4.88;;;;;26.50;98545.00;;;;5072280;28;20047;-60
2023/06/17 09:21:27;;;;;;;7.22;5.45;;;;;26.50;98548.00;;;;5072623;28;20102;-60
2023/06/17 09:24:03;;;;;;;4.90;4.40;;;;;26.60;98545.00;;;;5072823;28;20115;-60
2023/06/17 09:26:31;;;;;;;6.00;4.70;;;;;26.50;98539.00;;;;5071797;28;20045;-61
2023/06/17 09:29:03;;;;;;;4.68;4.07;;;;;26.50;98534.00;;;;5071387;28;20056;-61
2023/06/17 09:31:31;;;;;;;6.18;4.38;;;;;26.70;98528.00;;;;5073204;28;20072;-61
2023/06/17 09:34:02;;;;;;;6.03;4.90;;;;;26.80;98529.00;;;;5073354;28;20036;-60
2023/06/17 09:36:28;;;;;;;5.70;5.10;;;;;26.90;98539.00;;;;5073452;28;20076;-60
2023/06/17 09:38:55;;;;;;;6.18;4.90;;;;;27.00;98528.00;;;;5073894;28;20068;-59
2023/06/17 09:41:23;;;;;;;6.20;4.55;;;;;27.20;98536.00;;;;5082133;28;20059;-60
2023/06/17 09:43:54;;;;;;;8.20;5.13;;;;;27.30;98534.00;;;;5083124;28;20048;-60
2023/06/17 09:46:24;;;;;;;5.20;4.70;;;;;27.30;98534.00;;;;5084607;28;20071;-61
2023/06/17 09:48:54;;;;;;;6.05;4.60;;;;;27.40;98527.00;;;;5085564;28;20052;-60
2023/06/17 09:51:21;;;;;;;6.65;4.13;;;;;27.50;98524.00;;;;5069797;28;20059;-63
2023/06/17 09:53:50;;;;;;;5.07;4.20;;;;;27.60;98524.00;;;;5088744;28;20075;-62
2023/06/17 09:56:18;;;;;;;4.93;4.40;;;;;27.70;98516.00;;;;5088282;28;20056;-62
2023/06/17 09:58:45;;;;;;;6.50;4.40;;;;;27.70;98518.00;;;;5086989;28;20048;-62
2023/06/17 10:01:13;;;;;;;5.63;4.90;;;;;27.70;98514.00;;;;5084539;28;20068;-60
2023/06/17 10:03:40;;;;;;;5.15;4.57;;;;;27.80;98514.00;;;;5083719;28;20083;-61
2023/06/17 10:06:09;;;;;;;8.75;4.07;;;;;28.00;98519.00;;;;5081918;28;20052;-62
2023/06/17 10:08:39;;;;;;;5.07;4.15;;;;;28.10;98526.00;;;;5075739;28;20098;-62
2023/06/17 10:11:05;;;;;;;7.05;4.25;;;;;28.00;98521.00;;;;5072257;28;20390;-61
2023/06/17 10:13:36;;;;;;;5.53;3.95;;;;;27.90;98520.00;;;;5071510;28;20044;-62
2023/06/17 10:16:07;;;;;;;6.07;4.28;;;;;27.90;98518.00;;;;5071625;28;20370;-61
2023/06/17 10:18:36;;;;;;;4.82;4.32;;;;;27.70;98520.00;;;;5071549;28;20139;-62
2023/06/17 10:21:07;;;;;;;4.55;4.07;;;;;27.70;98524.00;;;;5072047;28;20423;-62
2023/06/17 10:23:36;;;;;;;7.88;4.13;;;;;27.90;98513.00;;;;5076310;28;20049;-61
2023/06/17 10:26:06;;;;;;;5.78;5.18;;;;;28.20;98513.00;;;;5058544;28;20045;-61
2023/06/17 10:28:43;;;;;;;6.47;3.95;;;;;28.30;98524.00;;;;5074854;28;20131;-62
2023/06/17 10:31:21;;;;;;;9.25;4.70;;;;;28.50;98517.00;;;;5075691;28;20110;-61
2023/06/17 10:33:48;;;;;;;4.47;4.07;;;;;28.50;98519.00;;;;5076519;28;20044;-62
2023/06/17 10:36:15;;;;;;;4.70;4.07;;;;;28.40;98521.00;;;;5077379;28;20095;-62
2023/06/17 10:38:56;;;;;;;5.00;4.13;;;;;28.30;98518.00;;;;5076089;28;20408;-61
2023/06/17 10:41:57;;;;;;;4.38;3.97;;;;;28.30;98522.00;;;;5076418;28;20037;-62
2023/06/17 10:44:34;;;;;;;5.15;4.30;;;;;28.40;98519.00;;;;5076966;28;20140;-62
2023/06/17 10:47:03;;;;;;;4.60;4.13;;;;;28.40;98512.00;;;;5078008;28;20052;-61
2023/06/17 10:49:38;;;;;;;4.72;4.22;;;;;28.50;98509.00;;;;5077973;28;20482;-61
2023/06/17 10:52:10;;;;;;;5.50;4.38;;;;;28.60;98503.00;;;;5077674;28;20071;-61
2023/06/17 10:54:44;;;;;;;5.23;4.57;;;;;28.50;98502.00;;;;5079069;28;20072;-62
2023/06/17 10:57:11;;;;;;;9.63;7.88;;;;;28.50;98497.00;;;;5078364;28;20096;-62
2023/06/17 10:59:37;;;;;;;13.13;9.80;;;;;28.40;98501.00;;;;5060274;28;20079;-61
2023/06/17 11:02:08;;;;;;;7.18;5.63;;;;;28.70;98498.00;;;;5059531;28;20041;-61
2023/06/17 11:04:40;;;;;;;4.60;4.13;;;;;28.90;98497.00;;;;5076230;28;20040;-61
2023/06/17 11:07:08;;;;;;;6.35;4.90;;;;;28.90;98502.00;;;;5077123;28;20056;-61
2023/06/17 11:09:36;;;;;;;5.53;4.00;;;;;28.80;98501.00;;;;5075094;28;20072;-61
2023/06/17 11:12:04;;;;;;;5.13;4.40;;;;;28.80;98503.00;;;;5074710;28;20033;-60
2023/06/17 11:14:32;;;;;;;12.10;4.43;;;;;28.90;98497.00;;;;5074177;28;20044;-63
2023/06/17 11:16:59;;;;;;;7.65;4.35;;;;;29.00;98496.00;;;;5074994;28;20109;-61
2023/06/17 11:19:26;;;;;;;5.57;4.13;;;;;29.10;98490.00;;;;5074690;28;20036;-61
2023/06/17 11:21:57;;;;;;;5.63;4.38;;;;;29.10;98488.00;;;;5074652;28;20048;-61
2023/06/17 11:24:25;;;;;;;4.63;4.10;;;;;29.10;98490.00;;;;5073622;28;20049;-61
2023/06/17 11:26:52;;;;;;;5.15;4.65;;;;;29.10;98498.00;;;;5074813;28;20041;-60
2023/06/17 11:29:18;;;;;;;4.82;4.18;;;;;29.10;98487.00;;;;5072836;28;20480;-59
2023/06/17 11:31:45;;;;;;;5.55;4.22;;;;;29.00;98500.00;;;;5072621;28;20476;-60
2023/06/17 11:34:12;;;;;;;5.03;4.53;;;;;28.80;98496.00;;;;5072781;28;20044;-60
2023/06/17 11:36:39;;;;;;;5.05;4.55;;;;;28.70;98492.00;;;;5056695;28;20102;-60
2023/06/17 11:39:06;;;;;;;4.88;4.38;;;;;28.80;98485.00;;;;5073011;28;20489;-59
2023/06/17 11:41:33;;;;;;;4.88;4.10;;;;;28.90;98481.00;;;;5074481;28;20074;-60
2023/06/17 11:44:00;;;;;;;4.80;4.40;;;;;28.90;98486.00;;;;5073827;28;20040;-59
2023/06/17 11:46:27;;;;;;;4.93;4.43;;;;;28.80;98487.00;;;;5073571;28;20055;-59
2023/06/17 11:48:55;;;;;;;5.68;4.63;;;;;29.00;98472.00;;;;5072037;28;20032;-59
2023/06/17 11:51:23;;;;;;;5.30;4.75;;;;;29.10;98475.00;;;;5073207;28;20578;-60
2023/06/17 11:53:50;;;;;;;5.30;3.90;;;;;29.20;98477.00;;;;5072955;28;20041;-62
2023/06/17 11:56:20;;;;;;;4.65;4.10;;;;;29.30;98465.00;;;;5073395;28;20033;-58
2023/06/17 11:58:50;;;;;;;4.75;4.00;;;;;29.40;98464.00;;;;5073203;28;20033;-59
2023/06/17 12:01:24;;;;;;;21.70;18.17;;;;;29.40;98468.00;;;;5072237;28;20037;-59
2023/06/17 12:03:50;;;;;;;5.80;5.15;;;;;29.30;98459.00;;;;5073060;28;20075;-59
2023/06/17 12:06:19;;;;;;;6.90;4.70;;;;;29.10;98455.00;;;;5072888;28;20094;-60
2023/06/17 12:08:55;;;;;;;6.50;4.60;;;;;29.00;98455.00;;;;5055021;28;20044;-60
2023/06/17 12:11:28;;;;;;;5.35;4.30;;;;;29.20;98457.00;;;;5072881;28;20082;-60
2023/06/17 12:13:54;;;;;;;5.00;4.10;;;;;29.30;98457.00;;;;5073080;28;20064;-62
2023/06/17 12:16:30;;;;;;;6.10;4.40;;;;;29.50;98468.00;;;;5072671;28;20079;-62
2023/06/17 12:18:58;;;;;;;6.18;4.38;;;;;29.70;98458.00;;;;5072600;28;20375;-63
2023/06/17 12:21:25;;;;;;;4.70;4.30;;;;;30.00;98456.00;;;;5072841;28;20409;-61